Time;durP1;ratioP1;P1;durP2;ratioP2;P2;SDS_P1;SDS_P2;PMS_P1;PMS_P2;Temp;Humidity;BMP_temperature;BMP_pressure;BME280_temperature;BME280_humidity;BME280_pressure;Samples;Min_cycle;Max_cycle;Signal;HPM_P1;HPM_P2
2022/05/13 00:01:57;;;;;;;1.85;0.88;;;;;;;;;;4949743;29;20731;-61
2022/05/13 00:04:24;;;;;;;2.53;1.02;;;;;;;;;;4950425;29;20207;-61
2022/05/13 00:06:51;;;;;;;2.03;1.10;;;;;;;;;;4949318;29;20202;-61
2022/05/13 00:09:18;;;;;;;1.13;1.05;;;;;;;;;;4949427;29;20311;-61
2022/05/13 00:11:45;;;;;;;1.02;0.80;;;;;;;;;;4950367;29;20850;-61
2022/05/13 00:14:13;;;;;;;0.77;0.77;;;;;;;;;;4949948;29;20215;-61
2022/05/13 00:16:41;;;;;;;0.98;0.90;;;;;;;;;;4949951;29;20254;-61
2022/05/13 00:19:10;;;;;;;1.35;1.20;;;;;;;;;;4950101;29;20206;-62
2022/05/13 00:21:37;;;;;;;0.90;0.90;;;;;;;;;;4949994;28;20242;-61
2022/05/13 00:24:05;;;;;;;0.85;0.85;;;;;;;;;;4950916;29;20556;-61
2022/05/13 00:26:32;;;;;;;0.80;0.80;;;;;;;;;;4950011;28;20211;-61
2022/05/13 00:28:59;;;;;;;2.08;0.93;;;;;;;;;;4950010;29;20207;-61
2022/05/13 00:31:28;;;;;;;2.20;1.20;;;;;;;;;;4949696;29;20606;-61
2022/05/13 00:33:55;;;;;;;1.77;1.00;;;;;;;;;;4950013;29;20210;-61
2022/05/13 00:36:22;;;;;;;1.42;0.85;;;;;;;;;;4950217;29;20215;-62
2022/05/13 00:38:50;;;;;;;1.65;1.17;;;;;;;;;;4949496;29;20215;-61
2022/05/13 00:41:17;;;;;;;2.85;1.00;;;;;;;;;;4950521;29;20211;-61
2022/05/13 00:43:46;;;;;;;1.63;1.00;;;;;;;;;;4949012;29;20207;-61
2022/05/13 00:46:14;;;;;;;1.27;0.85;;;;;;;;;;4950178;29;20215;-62
2022/05/13 00:48:42;;;;;;;0.90;0.90;;;;;;;;;;4949761;29;20449;-62
2022/05/13 00:51:11;;;;;;;4.78;1.00;;;;;;;;;;4949866;29;20215;-62
2022/05/13 00:53:38;;;;;;;1.02;1.00;;;;;;;;;;4949961;29;20293;-62
2022/05/13 00:56:05;;;;;;;4.18;0.82;;;;;;;;;;4950456;28;20744;-62
2022/05/13 00:58:33;;;;;;;0.70;0.70;;;;;;;;;;4949753;29;20736;-62
2022/05/13 01:01:00;;;;;;;1.77;0.93;;;;;;;;;;4950060;29;20589;-62
2022/05/13 01:03:27;;;;;;;1.17;1.05;;;;;;;;;;4949783;29;20219;-62
2022/05/13 01:05:57;;;;;;;0.90;0.90;;;;;;;;;;4950265;29;20726;-62
2022/05/13 01:08:25;;;;;;;0.65;0.65;;;;;;;;;;4949264;29;20297;-62
2022/05/13 01:10:54;;;;;;;1.20;1.20;;;;;;;;;;4949103;29;20231;-61
2022/05/13 01:13:22;;;;;;;1.10;0.85;;;;;;;;;;4948511;29;20223;-61
2022/05/13 01:15:51;;;;;;;1.58;0.85;;;;;;;;;;4948028;29;20226;-61
2022/05/13 01:18:24;;;;;;;0.90;0.90;;;;;;;;;;4947695;29;20210;-61
2022/05/13 01:20:51;;;;;;;0.88;0.88;;;;;;;;;;4948559;29;20250;-61
2022/05/13 01:23:21;;;;;;;2.25;1.17;;;;;;;;;;4948679;29;20270;-61
2022/05/13 01:25:50;;;;;;;1.00;1.00;;;;;;;;;;4947802;28;20258;-61
2022/05/13 01:28:18;;;;;;;4.72;1.20;;;;;;;;;;4949050;29;20212;-61
2022/05/13 01:30:46;;;;;;;1.00;1.00;;;;;;;;;;4949789;29;20250;-61
2022/05/13 01:33:14;;;;;;;2.03;0.98;;;;;;;;;;4950666;28;20223;-61
2022/05/13 01:35:41;;;;;;;2.95;1.08;;;;;;;;;;4952972;29;20207;-61
2022/05/13 01:38:09;;;;;;;2.00;1.10;;;;;;;;;;4953081;29;20674;-61
2022/05/13 01:40:37;;;;;;;1.45;1.20;;;;;;;;;;4953061;29;20210;-61
2022/05/13 01:43:05;;;;;;;1.60;1.10;;;;;;;;;;4952651;29;20286;-61
2022/05/13 01:45:32;;;;;;;3.50;1.05;;;;;;;;;;4953024;29;20270;-62
2022/05/13 01:47:59;;;;;;;0.75;0.75;;;;;;;;;;4951036;29;20674;-62
2022/05/13 01:50:26;;;;;;;1.13;1.08;;;;;;;;;;4952803;29;20207;-62
2022/05/13 01:52:54;;;;;;;1.23;1.13;;;;;;;;;;4952306;29;20255;-62
2022/05/13 01:55:21;;;;;;;2.90;1.00;;;;;;;;;;4952906;29;20735;-62
2022/05/13 01:57:49;;;;;;;1.13;0.90;;;;;;;;;;4952565;28;20697;-62
2022/05/13 02:00:17;;;;;;;1.40;1.30;;;;;;;;;;4952470;29;20203;-62
2022/05/13 02:05:28;;;;;;;1.70;1.17;;;;;;;;;;4950429;29;20218;-62
2022/05/13 02:07:55;;;;;;;1.00;1.00;;;;;;;;;;4951025;28;20238;-62
2022/05/13 02:10:23;;;;;;;2.90;1.40;;;;;;;;;;4952339;29;20211;-62
2022/05/13 02:12:51;;;;;;;1.65;1.10;;;;;;;;;;4951224;29;20238;-62
2022/05/13 02:15:18;;;;;;;1.50;1.30;;;;;;;;;;4951549;29;20219;-62
2022/05/13 02:17:45;;;;;;;2.80;1.30;;;;;;;;;;4950983;29;20210;-62
2022/05/13 02:20:12;;;;;;;2.05;1.17;;;;;;;;;;4950960;29;20674;-62
2022/05/13 02:22:39;;;;;;;1.20;1.20;;;;;;;;;;4952008;29;20199;-62
2022/05/13 02:25:07;;;;;;;1.75;1.05;;;;;;;;;;4949796;29;20281;-62
2022/05/13 02:27:34;;;;;;;2.97;1.23;;;;;;;;;;4951825;28;20223;-61
2022/05/13 02:30:03;;;;;;;1.10;1.10;;;;;;;;;;4951684;29;20297;-62
2022/05/13 02:32:30;;;;;;;1.95;1.70;;;;;;;;;;4951773;29;20701;-61
2022/05/13 02:35:06;;;;;;;3.30;1.45;;;;;;;;;;4951379;29;20214;-62
2022/05/13 02:37:54;;;;;;;1.65;1.25;;;;;;;;;;4951203;29;20897;-62
2022/05/13 02:41:11;;;;;;;1.02;1.02;;;;;;;;;;4949778;29;20265;-62
2022/05/13 02:43:12;;;;;;;1.83;1.73;;;;;;;;;;4948116;28;20210;-61
2022/05/13 02:45:40;;;;;;;1.75;1.30;;;;;;;;;;4949167;28;20866;-62
2022/05/13 02:48:07;;;;;;;2.03;1.40;;;;;;;;;;4950062;29;20207;-61
2022/05/13 02:50:34;;;;;;;2.60;1.60;;;;;;;;;;4949975;29;20207;-61
2022/05/13 02:53:02;;;;;;;1.63;1.53;;;;;;;;;;4949730;29;20227;-61
2022/05/13 02:55:30;;;;;;;2.45;1.40;;;;;;;;;;4948634;29;20294;-62
2022/05/13 02:57:57;;;;;;;1.80;1.57;;;;;;;;;;4950178;28;20211;-61
2022/05/13 03:00:24;;;;;;;1.75;1.65;;;;;;;;;;4949432;29;20333;-61
2022/05/13 03:02:51;;;;;;;2.25;1.73;;;;;;;;;;4949701;29;20203;-62
2022/05/13 03:05:18;;;;;;;1.45;1.35;;;;;;;;;;4949577;29;20958;-61
2022/05/13 03:07:46;;;;;;;1.17;1.10;;;;;;;;;;4949338;29;20306;-61
2022/05/13 03:10:13;;;;;;;4.45;1.50;;;;;;;;;;4949937;29;20226;-61
2022/05/13 03:12:41;;;;;;;1.17;1.17;;;;;;;;;;4949696;29;20223;-61
2022/05/13 03:15:10;;;;;;;1.73;1.60;;;;;;;;;;4949546;29;20207;-61
2022/05/13 03:17:39;;;;;;;1.55;1.55;;;;;;;;;;4950275;29;20277;-61
2022/05/13 03:20:07;;;;;;;2.60;1.33;;;;;;;;;;4949469;29;20200;-62
2022/05/13 03:22:35;;;;;;;1.50;1.45;;;;;;;;;;4949759;29;20278;-62
2022/05/13 03:25:02;;;;;;;4.50;1.55;;;;;;;;;;4949614;29;20560;-61
2022/05/13 03:27:29;;;;;;;5.27;1.60;;;;;;;;;;4950261;28;20265;-61
2022/05/13 03:29:57;;;;;;;1.60;1.50;;;;;;;;;;4949399;29;20203;-62
2022/05/13 03:32:24;;;;;;;2.13;1.55;;;;;;;;;;4950058;29;20234;-62
2022/05/13 03:34:51;;;;;;;3.15;1.35;;;;;;;;;;4949386;29;20289;-62
2022/05/13 03:37:18;;;;;;;3.65;1.40;;;;;;;;;;4949555;29;20262;-62
2022/05/13 03:39:45;;;;;;;1.05;1.05;;;;;;;;;;4949148;29;20266;-61
2022/05/13 03:42:12;;;;;;;1.77;1.30;;;;;;;;;;4946152;29;20580;-61
2022/05/13 03:44:39;;;;;;;1.67;1.60;;;;;;;;;;4946819;29;20270;-60
2022/05/13 03:47:08;;;;;;;3.17;1.80;;;;;;;;;;4949760;29;20270;-61
2022/05/13 03:49:35;;;;;;;1.88;1.73;;;;;;;;;;4949168;29;20480;-61
2022/05/13 03:52:02;;;;;;;1.90;1.80;;;;;;;;;;4949222;29;20219;-61
2022/05/13 03:54:29;;;;;;;1.70;1.60;;;;;;;;;;4948915;29;21009;-61
2022/05/13 03:56:56;;;;;;;2.33;1.90;;;;;;;;;;4948653;28;20219;-61
2022/05/13 03:59:23;;;;;;;2.50;1.55;;;;;;;;;;4948645;29;20686;-61
2022/05/13 04:01:50;;;;;;;1.67;1.60;;;;;;;;;;4948663;29;20211;-61
2022/05/13 04:04:21;;;;;;;4.72;1.85;;;;;;;;;;4949011;29;20266;-61
2022/05/13 04:09:32;;;;;;;2.30;2.00;;;;;;;;;;4914276;29;20724;-61
2022/05/13 04:17:28;;;;;;;2.57;1.70;;;;;;;;;;4930133;29;20242;-61
2022/05/13 04:19:57;;;;;;;1.70;1.67;;;;;;;;;;4929688;29;20220;-61
2022/05/13 04:22:25;;;;;;;2.00;1.77;;;;;;;;;;4929519;29;20200;-61
2022/05/13 04:24:52;;;;;;;2.33;1.80;;;;;;;;;;4929951;29;20267;-61
2022/05/13 04:27:19;;;;;;;1.90;1.80;;;;;;;;;;4930511;29;20218;-61
2022/05/13 04:29:46;;;;;;;1.83;1.73;;;;;;;;;;4929326;29;20212;-61
2022/05/13 04:32:13;;;;;;;1.87;1.80;;;;;;;;;;4929535;29;20290;-61
2022/05/13 04:34:40;;;;;;;2.03;1.83;;;;;;;;;;4929914;29;20254;-62
2022/05/13 04:37:09;;;;;;;2.05;1.98;;;;;;;;;;4929367;29;20270;-61
2022/05/13 04:39:36;;;;;;;3.92;1.88;;;;;;;;;;4929759;29;20286;-61
2022/05/13 04:44:48;;;;;;;1.93;1.67;;;;;;;;;;4929386;29;20211;-61
2022/05/13 04:49:57;;;;;;;1.77;1.67;;;;;;;;;;4928448;29;20204;-61
2022/05/13 04:52:26;;;;;;;1.92;1.83;;;;;;;;;;4928933;29;20290;-61
2022/05/13 04:54:53;;;;;;;3.27;2.10;;;;;;;;;;4929379;29;20212;-61
2022/05/13 04:57:20;;;;;;;1.92;1.83;;;;;;;;;;4929793;29;20640;-61
2022/05/13 04:59:47;;;;;;;1.95;1.85;;;;;;;;;;4929197;29;20215;-61
2022/05/13 05:02:14;;;;;;;2.08;1.60;;;;;;;;;;4929233;29;20220;-61
2022/05/13 05:04:41;;;;;;;1.95;1.92;;;;;;;;;;4928379;29;20199;-61
2022/05/13 05:07:08;;;;;;;2.05;1.75;;;;;;;;;;4929427;29;20204;-62
2022/05/13 05:09:38;;;;;;;2.00;1.90;;;;;;;;;;4948030;29;20293;-61
2022/05/13 05:12:07;;;;;;;2.10;2.00;;;;;;;;;;4953189;29;20214;-60
2022/05/13 05:14:34;;;;;;;3.22;2.08;;;;;;;;;;4953598;29;20318;-62
2022/05/13 05:17:01;;;;;;;2.00;1.90;;;;;;;;;;4953464;29;20325;-60
2022/05/13 05:19:28;;;;;;;2.20;2.10;;;;;;;;;;4953526;29;20211;-60
2022/05/13 05:21:55;;;;;;;1.77;1.67;;;;;;;;;;4958182;28;20664;-60
2022/05/13 05:24:23;;;;;;;2.13;1.40;;;;;;;;;;4953170;29;20206;-61
2022/05/13 05:26:51;;;;;;;1.88;1.77;;;;;;;;;;4962146;28;20222;-60
2022/05/13 05:29:18;;;;;;;2.00;1.70;;;;;;;;;;4958639;28;20273;-60
2022/05/13 05:31:45;;;;;;;2.20;1.98;;;;;;;;;;4963566;28;20262;-59
2022/05/13 05:34:13;;;;;;;7.82;2.72;;;;;;;;;;4962059;28;20223;-59
2022/05/13 05:36:40;;;;;;;2.40;1.60;;;;;;;;;;4962085;28;20226;-60
2022/05/13 05:39:07;;;;;;;4.20;1.90;;;;;;;;;;4961161;28;20694;-60
2022/05/13 05:41:34;;;;;;;2.13;1.58;;;;;;;;;;4961514;28;20214;-60
2022/05/13 05:44:03;;;;;;;2.63;1.83;;;;;;;;;;4960755;28;20203;-59
2022/05/13 05:46:30;;;;;;;1.98;1.58;;;;;;;;;;4955873;28;20211;-59
2022/05/13 05:48:58;;;;;;;1.95;1.67;;;;;;;;;;4960936;28;20238;-59
2022/05/13 05:51:25;;;;;;;3.15;1.52;;;;;;;;;;4961150;28;20211;-60
2022/05/13 05:59:24;;;;;;;5.43;1.80;;;;;;;;;;4959950;28;20229;-60
2022/05/13 06:01:51;;;;;;;2.30;1.35;;;;;;;;;;4953826;28;20218;-60
2022/05/13 06:04:18;;;;;;;4.32;1.58;;;;;;;;;;4955636;28;20729;-61
2022/05/13 06:06:45;;;;;;;1.60;1.50;;;;;;;;;;4962336;28;20233;-61
2022/05/13 06:09:12;;;;;;;1.52;1.23;;;;;;;;;;4959301;28;20242;-57
2022/05/13 06:11:39;;;;;;;2.60;1.20;;;;;;;;;;4961065;28;20210;-58
2022/05/13 06:14:08;;;;;;;2.05;0.85;;;;;;;;;;4961745;28;20739;-59
2022/05/13 06:16:38;;;;;;;2.75;1.27;;;;;;;;;;4961384;28;20218;-59
2022/05/13 06:19:05;;;;;;;1.75;1.17;;;;;;;;;;4958933;28;20335;-58
2022/05/13 06:21:33;;;;;;;2.10;1.17;;;;;;;;;;4960094;28;20632;-59
2022/05/13 06:24:00;;;;;;;3.78;1.23;;;;;;;;;;4961348;28;20231;-59
2022/05/13 06:26:27;;;;;;;1.17;1.02;;;;;;;;;;4957361;28;20219;-59
2022/05/13 06:28:55;;;;;;;1.00;0.90;;;;;;;;;;4960108;28;20211;-59
2022/05/13 06:31:22;;;;;;;1.42;0.65;;;;;;;;;;4959513;28;21054;-59
2022/05/13 06:33:51;;;;;;;2.17;0.68;;;;;;;;;;4960220;28;20235;-59
2022/05/13 06:36:18;;;;;;;1.45;0.60;;;;;;;;;;4960292;28;20602;-59
2022/05/13 06:38:46;;;;;;;1.00;0.70;;;;;;;;;;4959770;28;20203;-60
2022/05/13 06:41:13;;;;;;;1.92;0.90;;;;;;;;;;4961004;28;20208;-60
2022/05/13 06:43:40;;;;;;;1.15;0.60;;;;;;;;;;4959312;28;20203;-60
2022/05/13 06:46:07;;;;;;;1.83;0.98;;;;;;;;;;4959297;28;20671;-59
2022/05/13 06:48:34;;;;;;;0.80;0.80;;;;;;;;;;4959049;28;20273;-60
2022/05/13 06:51:03;;;;;;;1.30;0.80;;;;;;;;;;4961266;28;20214;-60
2022/05/13 06:53:30;;;;;;;1.13;0.60;;;;;;;;;;4958700;28;20700;-58
2022/05/13 06:55:57;;;;;;;1.55;0.60;;;;;;;;;;4960465;28;20580;-58
2022/05/13 06:58:24;;;;;;;1.70;0.80;;;;;;;;;;4960846;28;20212;-58
2022/05/13 07:00:51;;;;;;;2.60;0.80;;;;;;;;;;4959855;28;20210;-58
2022/05/13 07:03:20;;;;;;;1.38;0.85;;;;;;;;;;4960363;28;20255;-58
2022/05/13 07:05:47;;;;;;;1.00;0.80;;;;;;;;;;4958509;28;20212;-58
2022/05/13 07:08:16;;;;;;;1.70;0.63;;;;;;;;;;4957774;28;20297;-58
2022/05/13 07:10:45;;;;;;;1.88;0.50;;;;;;;;;;4950117;29;20210;-59
2022/05/13 07:13:13;;;;;;;0.60;0.60;;;;;;;;;;4960520;28;20337;-61
2022/05/13 07:15:41;;;;;;;1.45;0.57;;;;;;;;;;4950678;29;20273;-59
2022/05/13 07:18:08;;;;;;;0.47;0.47;;;;;;;;;;4960334;28;20714;-58
2022/05/13 07:20:35;;;;;;;1.48;0.70;;;;;;;;;;4950702;29;20218;-58
2022/05/13 07:23:02;;;;;;;1.23;0.52;;;;;;;;;;4951234;29;20214;-58
2022/05/13 07:25:32;;;;;;;0.75;0.70;;;;;;;;;;4951041;29;20222;-58
2022/05/13 07:27:59;;;;;;;1.77;0.50;;;;;;;;;;4951065;28;20314;-58
2022/05/13 07:30:26;;;;;;;0.93;0.60;;;;;;;;;;4950811;28;20239;-59
2022/05/13 07:32:53;;;;;;;2.55;0.75;;;;;;;;;;4951173;29;20215;-59
2022/05/13 07:35:20;;;;;;;3.10;0.80;;;;;;;;;;4950457;28;20649;-61
2022/05/13 07:37:47;;;;;;;0.85;0.63;;;;;;;;;;4951028;28;20211;-58
2022/05/13 07:43:03;;;;;;;3.05;0.40;;;;;;;;;;4948734;28;20276;-60
2022/05/13 07:45:30;;;;;;;1.80;0.55;;;;;;;;;;4957775;28;20206;-59
2022/05/13 07:47:57;;;;;;;1.95;0.60;;;;;;;;;;4957797;28;20210;-60
2022/05/13 07:50:24;;;;;;;0.85;0.70;;;;;;;;;;4953867;28;20213;-60
2022/05/13 07:52:53;;;;;;;2.03;0.68;;;;;;;;;;4950696;28;20219;-59
2022/05/13 07:55:20;;;;;;;2.47;0.60;;;;;;;;;;4952449;28;20372;-60
2022/05/13 07:57:48;;;;;;;2.22;0.57;;;;;;;;;;4957560;28;20236;-60
2022/05/13 08:00:32;;;;;;;2.05;0.50;;;;;;;;;;4951822;28;20591;-62
2022/05/13 08:03:00;;;;;;;2.47;0.50;;;;;;;;;;4955748;28;20286;-59
2022/05/13 08:05:28;;;;;;;1.92;0.60;;;;;;;;;;4950519;29;20210;-59
2022/05/13 08:07:59;;;;;;;1.33;0.52;;;;;;;;;;4950004;29;20253;-59
2022/05/13 08:10:26;;;;;;;0.85;0.50;;;;;;;;;;4949934;29;20211;-59
2022/05/13 08:12:53;;;;;;;3.70;0.60;;;;;;;;;;4950426;29;20218;-57
2022/05/13 08:15:22;;;;;;;1.00;0.50;;;;;;;;;;4950749;28;20231;-57
2022/05/13 08:17:49;;;;;;;1.27;0.50;;;;;;;;;;4951667;28;20618;-58
2022/05/13 08:20:16;;;;;;;1.02;0.55;;;;;;;;;;4954986;28;20207;-59
2022/05/13 08:22:45;;;;;;;1.15;0.60;;;;;;;;;;4952173;28;20270;-59
2022/05/13 08:25:12;;;;;;;0.80;0.60;;;;;;;;;;4954967;28;20214;-59
2022/05/13 08:27:39;;;;;;;0.40;0.40;;;;;;;;;;4949542;28;20271;-59
2022/05/13 08:30:07;;;;;;;3.75;0.73;;;;;;;;;;4956979;28;20202;-59
2022/05/13 08:32:35;;;;;;;2.08;0.57;;;;;;;;;;4953954;28;20600;-59
2022/05/13 08:35:02;;;;;;;2.50;0.60;;;;;;;;;;4953129;28;20397;-59
2022/05/13 08:37:30;;;;;;;0.98;0.85;;;;;;;;;;4956469;28;20349;-59
2022/05/13 08:40:00;;;;;;;3.30;0.70;;;;;;;;;;4956700;28;20634;-59
2022/05/13 08:42:35;;;;;;;0.88;0.50;;;;;;;;;;4947609;28;20210;-61
2022/05/13 08:45:02;;;;;;;2.45;0.60;;;;;;;;;;4956482;29;20228;-59
2022/05/13 08:47:36;;;;;;;0.90;0.60;;;;;;;;;;4965465;28;20215;-61
2022/05/13 08:50:08;;;;;;;2.95;0.50;;;;;;;;;;4954969;28;20587;-62
2022/05/13 08:55:26;;;;;;;1.80;0.50;;;;;;;;;;4957262;28;20825;-60
2022/05/13 08:57:54;;;;;;;1.48;0.50;;;;;;;;;;4962038;28;20309;-59
2022/05/13 09:00:27;;;;;;;1.13;0.32;;;;;;;;;;4963099;28;20297;-59
2022/05/13 09:02:57;;;;;;;4.07;0.85;;;;;;;;;;4957453;28;20218;-59
2022/05/13 09:05:27;;;;;;;0.40;0.40;;;;;;;;;;4959041;28;20214;-59
2022/05/13 09:07:55;;;;;;;1.15;0.40;;;;;;;;;;4956486;29;20249;-58
2022/05/13 09:10:22;;;;;;;0.73;0.50;;;;;;;;;;4956098;29;20973;-59
2022/05/13 09:13:09;;;;;;;0.40;0.40;;;;;;;;;;4957147;28;20636;-58
2022/05/13 09:15:39;;;;;;;2.28;0.50;;;;;;;;;;4954002;28;20285;-58
2022/05/13 09:18:07;;;;;;;1.33;0.68;;;;;;;;;;4956813;29;20214;-58
2022/05/13 09:20:41;;;;;;;2.30;0.50;;;;;;;;;;4951016;29;20266;-59
2022/05/13 09:23:11;;;;;;;1.02;0.38;;;;;;;;;;4967451;28;20636;-59
2022/05/13 09:25:41;;;;;;;0.55;0.55;;;;;;;;;;4960136;28;20203;-59
2022/05/13 09:28:10;;;;;;;0.60;0.60;;;;;;;;;;4947072;29;20215;-60
2022/05/13 09:30:38;;;;;;;0.60;0.60;;;;;;;;;;4963513;28;20217;-59
2022/05/13 09:33:22;;;;;;;0.50;0.50;;;;;;;;;;4957210;28;20274;-58
2022/05/13 09:35:51;;;;;;;2.35;0.70;;;;;;;;;;4958231;28;20230;-58
2022/05/13 09:38:19;;;;;;;0.50;0.50;;;;;;;;;;4955613;28;20213;-59
2022/05/13 09:40:57;;;;;;;1.00;0.40;;;;;;;;;;4966464;28;20278;-59
2022/05/13 09:43:33;;;;;;;0.45;0.45;;;;;;;;;;4959965;28;20222;-60
2022/05/13 09:46:03;;;;;;;1.98;0.40;;;;;;;;;;4967750;28;20269;-60
2022/05/13 09:48:30;;;;;;;1.00;0.40;;;;;;;;;;4970013;28;20628;-59
2022/05/13 09:51:18;;;;;;;1.88;0.70;;;;;;;;;;4955579;28;20275;-59
2022/05/13 09:53:45;;;;;;;0.90;0.50;;;;;;;;;;4957098;28;20215;-58
2022/05/13 09:56:14;;;;;;;0.55;0.55;;;;;;;;;;4950733;28;20222;-58
2022/05/13 09:58:51;;;;;;;0.57;0.40;;;;;;;;;;4951992;29;20710;-59
2022/05/13 10:01:22;;;;;;;0.30;0.30;;;;;;;;;;4952519;29;20210;-59
2022/05/13 10:04:01;;;;;;;0.60;0.40;;;;;;;;;;4952304;28;20223;-59
2022/05/13 10:06:34;;;;;;;1.23;0.60;;;;;;;;;;4951122;29;20262;-58
2022/05/13 10:14:30;;;;;;;1.27;0.57;;;;;;;;;;4971447;28;20237;-59
2022/05/13 10:17:00;;;;;;;0.93;0.50;;;;;;;;;;4950011;29;20218;-58
2022/05/13 10:19:30;;;;;;;3.50;0.52;;;;;;;;;;4937425;29;20207;-58
2022/05/13 10:22:02;;;;;;;1.63;0.50;;;;;;;;;;4951308;29;20298;-58
2022/05/13 10:24:32;;;;;;;0.60;0.60;;;;;;;;;;4951159;29;20203;-58
2022/05/13 10:27:01;;;;;;;0.70;0.60;;;;;;;;;;4952076;28;20219;-58
2022/05/13 10:29:31;;;;;;;0.50;0.50;;;;;;;;;;4951543;29;20214;-59
2022/05/13 10:31:58;;;;;;;2.45;0.70;;;;;;;;;;4951002;29;20710;-59
2022/05/13 10:34:27;;;;;;;0.93;0.50;;;;;;;;;;4962567;28;20234;-59
2022/05/13 10:36:57;;;;;;;0.68;0.68;;;;;;;;;;4964221;28;20214;-59
2022/05/13 10:39:30;;;;;;;0.60;0.50;;;;;;;;;;4964056;28;20632;-58
2022/05/13 10:41:58;;;;;;;2.13;0.60;;;;;;;;;;4950624;29;20242;-60
2022/05/13 10:44:28;;;;;;;0.60;0.57;;;;;;;;;;4950794;29;20243;-59
2022/05/13 10:46:57;;;;;;;0.38;0.38;;;;;;;;;;4951084;29;20274;-59
2022/05/13 10:49:25;;;;;;;1.75;0.57;;;;;;;;;;4950916;29;20215;-59
2022/05/13 10:51:55;;;;;;;0.52;0.52;;;;;;;;;;4950713;29;20207;-59
2022/05/13 10:54:31;;;;;;;0.82;0.60;;;;;;;;;;4950433;29;20223;-59
2022/05/13 10:57:03;;;;;;;0.90;0.50;;;;;;;;;;4949632;28;20261;-59
2022/05/13 10:59:35;;;;;;;1.33;0.55;;;;;;;;;;4947498;28;20297;-59
2022/05/13 11:02:08;;;;;;;2.30;0.57;;;;;;;;;;4950650;29;20258;-59
2022/05/13 11:04:40;;;;;;;1.33;0.55;;;;;;;;;;4949786;28;20211;-59
2022/05/13 11:07:12;;;;;;;0.98;0.55;;;;;;;;;;4956350;28;20203;-59
2022/05/13 11:09:47;;;;;;;0.40;0.40;;;;;;;;;;4941412;29;20239;-57
2022/05/13 11:12:20;;;;;;;0.45;0.45;;;;;;;;;;4950444;29;20256;-57
2022/05/13 11:14:56;;;;;;;0.95;0.65;;;;;;;;;;4948853;29;20230;-56
2022/05/13 11:17:28;;;;;;;0.88;0.88;;;;;;;;;;4949244;29;20218;-57
2022/05/13 11:20:03;;;;;;;1.10;0.55;;;;;;;;;;4942008;29;20219;-57
2022/05/13 11:22:32;;;;;;;0.82;0.50;;;;;;;;;;4950783;29;20261;-56
2022/05/13 11:28:02;;;;;;;1.85;0.50;;;;;;;;;;4951133;28;20221;-58
2022/05/13 11:30:33;;;;;;;0.40;0.40;;;;;;;;;;4950644;29;20253;-59
2022/05/13 11:33:02;;;;;;;3.35;0.73;;;;;;;;;;4950234;29;20213;-60
2022/05/13 11:35:39;;;;;;;1.10;0.50;;;;;;;;;;4950770;29;20235;-57
2022/05/13 11:38:09;;;;;;;0.75;0.52;;;;;;;;;;4950879;29;20214;-59
2022/05/13 11:40:54;;;;;;;2.13;0.50;;;;;;;;;;4950653;29;20211;-58
2022/05/13 11:43:35;;;;;;;2.33;0.50;;;;;;;;;;4944347;29;20213;-58
2022/05/13 11:46:21;;;;;;;0.80;0.55;;;;;;;;;;4952897;28;20210;-58
2022/05/13 11:48:48;;;;;;;0.75;0.60;;;;;;;;;;4948862;28;20207;-59
2022/05/13 11:51:19;;;;;;;0.98;0.43;;;;;;;;;;4949775;29;20210;-59
2022/05/13 11:53:48;;;;;;;0.75;0.55;;;;;;;;;;4960179;28;20206;-59
2022/05/13 11:56:18;;;;;;;0.60;0.60;;;;;;;;;;4950453;28;20231;-59
2022/05/13 11:58:55;;;;;;;1.17;0.57;;;;;;;;;;4950641;29;20218;-59
2022/05/13 12:04:59;;;;;;;2.88;0.60;;;;;;;;;;4949203;28;20211;-58
2022/05/13 12:07:28;;;;;;;1.48;0.52;;;;;;;;;;4950398;29;20603;-58
2022/05/13 12:09:55;;;;;;;2.17;0.50;;;;;;;;;;4949597;29;20242;-63
2022/05/13 12:12:29;;;;;;;1.23;0.45;;;;;;;;;;4950736;29;20681;-59
2022/05/13 12:15:00;;;;;;;0.63;0.40;;;;;;;;;;4950352;29;20230;-60
2022/05/13 12:17:30;;;;;;;0.85;0.40;;;;;;;;;;4950144;28;20262;-59
2022/05/13 12:20:00;;;;;;;6.22;0.75;;;;;;;;;;4949719;29;20681;-58
2022/05/13 12:22:36;;;;;;;0.75;0.43;;;;;;;;;;4953421;28;20203;-59
2022/05/13 12:25:05;;;;;;;0.50;0.50;;;;;;;;;;4950250;28;20254;-58
2022/05/13 12:27:34;;;;;;;0.60;0.60;;;;;;;;;;4950416;28;20242;-59
2022/05/13 12:30:04;;;;;;;0.47;0.47;;;;;;;;;;4950424;29;20211;-59
2022/05/13 12:32:43;;;;;;;2.15;0.50;;;;;;;;;;4949701;28;20211;-60
2022/05/13 12:38:02;;;;;;;0.50;0.50;;;;;;;;;;4940670;29;20218;-60
2022/05/13 12:40:32;;;;;;;0.47;0.47;;;;;;;;;;4948318;29;20207;-60
2022/05/13 12:43:01;;;;;;;0.28;0.28;;;;;;;;;;4948363;28;20210;-59
2022/05/13 12:45:45;;;;;;;0.50;0.50;;;;;;;;;;4949203;29;20214;-61
2022/05/13 12:48:14;;;;;;;0.40;0.40;;;;;;;;;;4950177;29;20306;-61
2022/05/13 12:50:42;;;;;;;0.82;0.50;;;;;;;;;;4951133;28;20621;-61
2022/05/13 12:53:28;;;;;;;0.40;0.40;;;;;;;;;;4946726;29;20952;-60
2022/05/13 12:55:56;;;;;;;0.38;0.38;;;;;;;;;;4948445;28;20227;-61
2022/05/13 12:58:25;;;;;;;0.55;0.50;;;;;;;;;;4949740;29;20250;-61
2022/05/13 13:00:54;;;;;;;0.40;0.40;;;;;;;;;;4952517;28;20282;-61
2022/05/13 13:03:22;;;;;;;0.43;0.43;;;;;;;;;;4969416;28;20261;-60
2022/05/13 13:05:57;;;;;;;0.65;0.50;;;;;;;;;;4956983;28;20248;-60
2022/05/13 13:08:26;;;;;;;1.65;0.68;;;;;;;;;;4948403;29;20230;-61
2022/05/13 13:13:51;;;;;;;0.55;0.50;;;;;;;;;;4946521;29;20238;-60
2022/05/13 13:16:22;;;;;;;0.35;0.35;;;;;;;;;;4949354;28;20238;-60
2022/05/13 13:19:05;;;;;;;1.17;0.50;;;;;;;;;;4949785;29;20637;-60
2022/05/13 13:21:32;;;;;;;0.30;0.30;;;;;;;;;;4949592;29;20207;-60
2022/05/13 13:24:00;;;;;;;0.38;0.38;;;;;;;;;;4950015;29;20215;-60
2022/05/13 13:26:27;;;;;;;0.75;0.47;;;;;;;;;;4949327;28;20718;-60
2022/05/13 13:28:54;;;;;;;1.55;0.55;;;;;;;;;;4950233;28;20214;-60
2022/05/13 13:31:26;;;;;;;0.80;0.40;;;;;;;;;;4952602;29;20200;-60
2022/05/13 13:33:55;;;;;;;0.38;0.38;;;;;;;;;;4953396;29;20210;-60
2022/05/13 13:36:24;;;;;;;1.33;0.38;;;;;;;;;;4953009;29;20234;-61
2022/05/13 13:38:53;;;;;;;0.63;0.30;;;;;;;;;;4953190;29;20291;-61
2022/05/13 13:41:24;;;;;;;1.25;0.52;;;;;;;;;;4952817;28;20684;-60
2022/05/13 13:43:53;;;;;;;2.83;0.57;;;;;;;;;;4952846;29;20292;-59
2022/05/13 13:46:22;;;;;;;0.43;0.43;;;;;;;;;;4953292;29;20650;-60
2022/05/13 13:48:52;;;;;;;0.52;0.52;;;;;;;;;;4953042;29;20299;-60
2022/05/13 13:51:22;;;;;;;1.83;0.43;;;;;;;;;;4953091;29;21070;-60
2022/05/13 13:53:55;;;;;;;0.77;0.40;;;;;;;;;;4952876;29;20203;-60
2022/05/13 13:56:22;;;;;;;0.40;0.40;;;;;;;;;;4952291;28;20834;-60
2022/05/13 13:58:57;;;;;;;1.20;0.50;;;;;;;;;;4950907;28;20274;-60
2022/05/13 14:01:25;;;;;;;0.70;0.45;;;;;;;;;;4952709;28;20257;-60
2022/05/13 14:04:05;;;;;;;0.55;0.47;;;;;;;;;;4952234;29;20656;-59
2022/05/13 14:06:33;;;;;;;1.42;0.50;;;;;;;;;;4951942;29;20262;-60
2022/05/13 14:09:00;;;;;;;0.40;0.40;;;;;;;;;;4951708;28;20298;-60
2022/05/13 14:11:28;;;;;;;3.83;0.40;;;;;;;;;;4951684;29;20721;-60
2022/05/13 14:14:00;;;;;;;0.30;0.30;;;;;;;;;;4951593;29;20226;-60
2022/05/13 14:16:29;;;;;;;0.52;0.43;;;;;;;;;;4949695;29;20235;-60
2022/05/13 14:18:57;;;;;;;0.47;0.40;;;;;;;;;;4951740;29;20203;-60
2022/05/13 14:21:30;;;;;;;2.85;0.50;;;;;;;;;;4951616;29;20717;-60
2022/05/13 14:23:58;;;;;;;0.65;0.30;;;;;;;;;;4951382;29;20219;-60
2022/05/13 14:26:25;;;;;;;2.25;0.45;;;;;;;;;;4951071;28;20219;-60
2022/05/13 14:28:53;;;;;;;0.38;0.32;;;;;;;;;;4951567;29;20288;-61
2022/05/13 14:31:21;;;;;;;0.20;0.20;;;;;;;;;;4951432;29;20692;-60
2022/05/13 14:33:51;;;;;;;1.30;0.60;;;;;;;;;;4950915;29;20359;-60
2022/05/13 14:36:20;;;;;;;0.25;0.25;;;;;;;;;;4951183;29;20234;-60
2022/05/13 14:41:39;;;;;;;1.05;0.40;;;;;;;;;;4950436;28;20238;-60
2022/05/13 14:44:07;;;;;;;0.40;0.40;;;;;;;;;;4950524;29;20624;-60
2022/05/13 14:46:34;;;;;;;0.60;0.30;;;;;;;;;;4951774;28;20207;-60
2022/05/13 14:49:01;;;;;;;0.93;0.40;;;;;;;;;;4950334;29;20210;-61
2022/05/13 14:51:29;;;;;;;1.30;0.85;;;;;;;;;;4961219;28;20210;-60
2022/05/13 14:53:59;;;;;;;2.72;0.68;;;;;;;;;;4953998;28;20235;-60
2022/05/13 14:56:27;;;;;;;0.28;0.28;;;;;;;;;;4950867;28;20238;-60
2022/05/13 14:58:56;;;;;;;0.43;0.28;;;;;;;;;;4950960;29;20233;-63
2022/05/13 15:01:25;;;;;;;0.85;0.30;;;;;;;;;;4947463;29;20266;-60
2022/05/13 15:03:54;;;;;;;1.17;0.32;;;;;;;;;;4947946;28;20214;-61
2022/05/13 15:06:34;;;;;;;0.88;0.30;;;;;;;;;;4950444;29;20207;-60
2022/05/13 15:09:11;;;;;;;1.42;0.50;;;;;;;;;;4950455;28;20864;-58
2022/05/13 15:11:38;;;;;;;0.82;0.30;;;;;;;;;;4950021;29;20210;-58
2022/05/13 15:14:09;;;;;;;0.30;0.30;;;;;;;;;;4951601;29;20864;-59
2022/05/13 15:16:38;;;;;;;0.93;0.47;;;;;;;;;;4949662;29;20318;-58
2022/05/13 15:19:05;;;;;;;0.50;0.50;;;;;;;;;;4964077;28;20210;-58
2022/05/13 15:21:32;;;;;;;0.38;0.38;;;;;;;;;;4957434;28;20218;-58
2022/05/13 15:23:59;;;;;;;2.40;0.30;;;;;;;;;;4952429;28;20221;-58
2022/05/13 15:26:29;;;;;;;0.63;0.35;;;;;;;;;;4957417;28;20258;-58
2022/05/13 15:28:56;;;;;;;0.45;0.40;;;;;;;;;;4956328;28;20206;-58
2022/05/13 15:31:23;;;;;;;0.55;0.50;;;;;;;;;;4966752;28;20215;-58
2022/05/13 15:33:50;;;;;;;0.70;0.70;;;;;;;;;;4959760;28;20244;-58
2022/05/13 15:36:21;;;;;;;0.40;0.40;;;;;;;;;;4950654;28;20239;-58
2022/05/13 15:38:48;;;;;;;0.32;0.32;;;;;;;;;;4954994;28;20238;-58
2022/05/13 15:41:16;;;;;;;0.32;0.32;;;;;;;;;;4949156;29;20704;-58
2022/05/13 15:43:45;;;;;;;0.43;0.38;;;;;;;;;;4946547;29;20207;-58